Terminal Aerodrome Forecast
Issued by NWS

Home | Current Version | Previous Version | Text Only | Print | Product List | Glossary On
Versions: 1 2 3 4 5 6 7 8 9 10 11 12 13 14 15 16 17 18 19 20 21 22 23 24 25 26 27 28 29 30
000
FTUS45 KBOU 190523
TAFAPA
TAF
KAPA 190523Z 1906/2006 18005KT P6SM SCT250
     FM190900 19006KT P6SM FEW140 SCT220
     FM191400 VRB06KT P6SM FEW140 BKN200
     FM191700 03007KT P6SM FEW140 BKN200
     FM192100 10007KT P6SM FEW140 BKN220
     FM200200 17006KT P6SM FEW140 SCT220=

USA.gov is the U.S. government's official web portal to all federal, state and local government web resources and services.